Iver Bright — ZDKU4 — position and weather

sailwx.info

Track history (hours):
 
Tides and Currents Weather Stations Pressure Air Temp Water Temp Dewpoint Dewpoint Depression Visibility Wind Speed Wind Dir Waves Ship Positions

Iver Bright

Last reported at 2014-Oct-20 08:17 UTC. Time now 2014-Oct-23 00:40 UTC.
Position N 36°48' E 013°30'.

Length 111 m; draft 7.1 m.

Type: Tanker. MMSI: 236111811.

Date/timePositionNaut miles runAvg speedWind from/ knotsBaromVisibWave heightAir tempDewpointWater temp
2014-Oct-20 08:17N 36°48' E 013°30'912.6
2014-Oct-20 07:33N 36°45' E 013°40'1412.4
2014-Oct-20 06:27N 36°39' E 013°56'1112.2
2014-Oct-20 05:33N 36°34' E 014°08'1211.9
2014-Oct-20 04:31N 36°28' E 014°22'  
2014-Oct-16 09:16N 36°22' E 022°38'2112.0
2014-Oct-16 07:33N 36°23' E 023°03'1211.9
2014-Oct-16 06:33N 36°21' E 023°18'1313.5
2014-Oct-16 05:33N 36°29' E 023°31'1414.0
2014-Oct-16 04:33N 36°37' E 023°45'1414.2
2014-Oct-16 03:33N 36°46' E 023°60'1413.7
2014-Oct-16 02:33N 36°53' E 024°14'1413.4
2014-Oct-16 01:33N 37°01' E 024°27'1313.2
2014-Oct-16 00:33N 37°09' E 024°41'1212.4
2014-Oct-15 23:33N 37°22' E 024°40'1313.4
2014-Oct-15 22:33N 37°35' E 024°36'1413.6
2014-Oct-15 21:33N 37°48' E 024°36'4313.1
2014-Oct-15 18:18N 38°29' E 024°54'1313.4
2014-Oct-15 17:20N 38°40' E 025°00'7112.2
2014-Oct-15 11:33N 39°40' E 024°12'1312.5
2014-Oct-15 10:31N 39°44' E 023°56'1 0.0
2014-Oct-13 22:31N 39°45' E 023°57'1313.2
2014-Oct-13 21:34N 39°40' E 024°13'1312.3
2014-Oct-13 20:32N 39°31' E 024°24'1212.0
2014-Oct-13 19:32N 39°22' E 024°33'1212.1
2014-Oct-13 18:33N 39°12' E 024°42'8710.8
2014-Oct-13 10:27N 37°45' E 024°34'1111.8
2014-Oct-13 09:33N 37°35' E 024°37'1212.4
2014-Oct-13 08:34N 37°23' E 024°41'1211.7
2014-Oct-13 07:34N 37°11' E 024°41'1111.4
2014-Oct-13 06:33N 37°03' E 024°31'1211.8
2014-Oct-13 05:34N 36°57' E 024°19'1211.9
2014-Oct-13 04:33N 36°49' E 024°07'1212.0
2014-Oct-13 03:33N 36°43' E 023°54'1212.2
2014-Oct-13 02:32N 36°35' E 023°42'  
Track history (hours):
 
Tides and Currents Weather Stations Pressure Air Temp Water Temp Dewpoint Dewpoint Depression Visibility Wind Speed Wind Dir Waves Ship Positions

Iver Bright

Last reported at 2014-Oct-20 08:17 UTC. Time now 2014-Oct-23 00:40 UTC.
Position N 36°48' E 013°30'.

Length 111 m; draft 7.1 m.

Type: Tanker. MMSI: 236111811.

Date/timePositionNaut miles runAvg speedWind from/ knotsBaromVisibWave heightAir tempDewpointWater temp
2014-Oct-20 08:17N 36°48' E 013°30'912.6
2014-Oct-20 07:33N 36°45' E 013°40'1412.4
2014-Oct-20 06:27N 36°39' E 013°56'1112.2
2014-Oct-20 05:33N 36°34' E 014°08'1211.9
2014-Oct-20 04:31N 36°28' E 014°22'  
2014-Oct-16 09:16N 36°22' E 022°38'2112.0
2014-Oct-16 07:33N 36°23' E 023°03'1211.9
2014-Oct-16 06:33N 36°21' E 023°18'1313.5
2014-Oct-16 05:33N 36°29' E 023°31'1414.0
2014-Oct-16 04:33N 36°37' E 023°45'1414.2
2014-Oct-16 03:33N 36°46' E 023°60'1413.7
2014-Oct-16 02:33N 36°53' E 024°14'1413.4
2014-Oct-16 01:33N 37°01' E 024°27'1313.2
2014-Oct-16 00:33N 37°09' E 024°41'1212.4
2014-Oct-15 23:33N 37°22' E 024°40'1313.4
2014-Oct-15 22:33N 37°35' E 024°36'1413.6
2014-Oct-15 21:33N 37°48' E 024°36'4313.1
2014-Oct-15 18:18N 38°29' E 024°54'1313.4
2014-Oct-15 17:20N 38°40' E 025°00'7112.2
2014-Oct-15 11:33N 39°40' E 024°12'1312.5
2014-Oct-15 10:31N 39°44' E 023°56'1 0.0
2014-Oct-13 22:31N 39°45' E 023°57'1313.2
2014-Oct-13 21:34N 39°40' E 024°13'1312.3
2014-Oct-13 20:32N 39°31' E 024°24'1212.0
2014-Oct-13 19:32N 39°22' E 024°33'1212.1
2014-Oct-13 18:33N 39°12' E 024°42'8710.8
2014-Oct-13 10:27N 37°45' E 024°34'1111.8
2014-Oct-13 09:33N 37°35' E 024°37'1212.4
2014-Oct-13 08:34N 37°23' E 024°41'1211.7
2014-Oct-13 07:34N 37°11' E 024°41'1111.4
2014-Oct-13 06:33N 37°03' E 024°31'1211.8
2014-Oct-13 05:34N 36°57' E 024°19'1211.9
2014-Oct-13 04:33N 36°49' E 024°07'1212.0
2014-Oct-13 03:33N 36°43' E 023°54'1212.2
2014-Oct-13 02:32N 36°35' E 023°42'  

Dump ship's entire track history